sensor_id;sensor_type;location;lat;lon;timestamp;P1;durP1;ratioP1;P2;durP2;ratioP2
10934;SDS011;5520;45.752;4.874;2023-04-08T00:00:50;2.87;;;1.93;;
10934;SDS011;5520;45.752;4.874;2023-04-08T00:03:19;1.90;;;1.77;;
10934;SDS011;5520;45.752;4.874;2023-04-08T00:05:47;2.33;;;1.90;;
10934;SDS011;5520;45.752;4.874;2023-04-08T00:08:16;2.50;;;1.83;;
10934;SDS011;5520;45.752;4.874;2023-04-08T00:10:44;3.60;;;1.70;;
10934;SDS011;5520;45.752;4.874;2023-04-08T00:13:12;5.47;;;1.83;;
10934;SDS011;5520;45.752;4.874;2023-04-08T00:15:41;1.90;;;1.70;;
10934;SDS011;5520;45.752;4.874;2023-04-08T00:18:09;1.63;;;1.53;;
10934;SDS011;5520;45.752;4.874;2023-04-08T00:20:37;1.60;;;1.50;;
10934;SDS011;5520;45.752;4.874;2023-04-08T00:23:05;2.07;;;1.87;;
10934;SDS011;5520;45.752;4.874;2023-04-08T00:25:34;2.00;;;1.80;;
10934;SDS011;5520;45.752;4.874;2023-04-08T00:28:02;3.10;;;1.60;;
10934;SDS011;5520;45.752;4.874;2023-04-08T00:30:30;1.60;;;1.50;;
10934;SDS011;5520;45.752;4.874;2023-04-08T00:32:58;1.90;;;1.80;;
10934;SDS011;5520;45.752;4.874;2023-04-08T00:35:27;2.27;;;1.83;;
10934;SDS011;5520;45.752;4.874;2023-04-08T00:37:55;2.70;;;1.90;;
10934;SDS011;5520;45.752;4.874;2023-04-08T00:40:23;1.70;;;1.50;;
10934;SDS011;5520;45.752;4.874;2023-04-08T00:42:52;3.03;;;1.87;;
10934;SDS011;5520;45.752;4.874;2023-04-08T00:45:21;1.87;;;1.50;;
10934;SDS011;5520;45.752;4.874;2023-04-08T00:47:49;3.17;;;1.87;;
10934;SDS011;5520;45.752;4.874;2023-04-08T00:50:18;2.23;;;1.80;;
10934;SDS011;5520;45.752;4.874;2023-04-08T00:52:46;3.47;;;1.83;;
10934;SDS011;5520;45.752;4.874;2023-04-08T00:55:14;3.00;;;1.87;;
10934;SDS011;5520;45.752;4.874;2023-04-08T00:57:42;2.27;;;1.43;;
10934;SDS011;5520;45.752;4.874;2023-04-08T01:00:13;3.07;;;2.20;;
10934;SDS011;5520;45.752;4.874;2023-04-08T01:02:43;2.00;;;1.80;;
10934;SDS011;5520;45.752;4.874;2023-04-08T01:05:13;3.43;;;1.77;;
10934;SDS011;5520;45.752;4.874;2023-04-08T01:07:44;3.13;;;1.97;;
10934;SDS011;5520;45.752;4.874;2023-04-08T01:10:14;3.83;;;1.87;;
10934;SDS011;5520;45.752;4.874;2023-04-08T01:12:43;4.27;;;1.83;;
10934;SDS011;5520;45.752;4.874;2023-04-08T01:15:16;2.00;;;1.90;;
10934;SDS011;5520;45.752;4.874;2023-04-08T01:17:44;2.27;;;2.07;;
10934;SDS011;5520;45.752;4.874;2023-04-08T01:20:12;2.50;;;2.30;;
10934;SDS011;5520;45.752;4.874;2023-04-08T01:22:48;3.23;;;1.80;;
10934;SDS011;5520;45.752;4.874;2023-04-08T01:25:21;2.43;;;2.10;;
10934;SDS011;5520;45.752;4.874;2023-04-08T01:27:51;6.93;;;2.10;;
10934;SDS011;5520;45.752;4.874;2023-04-08T01:30:22;3.33;;;2.03;;
10934;SDS011;5520;45.752;4.874;2023-04-08T01:32:51;2.83;;;2.13;;
10934;SDS011;5520;45.752;4.874;2023-04-08T01:35:20;2.90;;;1.80;;
10934;SDS011;5520;45.752;4.874;2023-04-08T01:37:49;3.70;;;2.00;;
10934;SDS011;5520;45.752;4.874;2023-04-08T01:40:18;2.40;;;2.10;;
10934;SDS011;5520;45.752;4.874;2023-04-08T01:42:46;3.03;;;2.00;;
10934;SDS011;5520;45.752;4.874;2023-04-08T01:45:16;2.10;;;1.93;;
10934;SDS011;5520;45.752;4.874;2023-04-08T01:47:45;4.23;;;2.20;;
10934;SDS011;5520;45.752;4.874;2023-04-08T01:50:14;2.13;;;1.93;;
10934;SDS011;5520;45.752;4.874;2023-04-08T01:52:42;2.73;;;2.07;;
10934;SDS011;5520;45.752;4.874;2023-04-08T01:55:11;4.57;;;2.37;;
10934;SDS011;5520;45.752;4.874;2023-04-08T01:57:39;5.77;;;1.80;;
10934;SDS011;5520;45.752;4.874;2023-04-08T02:00:08;2.30;;;2.10;;
10934;SDS011;5520;45.752;4.874;2023-04-08T02:02:39;3.07;;;2.10;;
10934;SDS011;5520;45.752;4.874;2023-04-08T02:05:09;2.73;;;1.80;;
10934;SDS011;5520;45.752;4.874;2023-04-08T02:07:37;2.13;;;2.03;;
10934;SDS011;5520;45.752;4.874;2023-04-08T02:10:05;3.00;;;1.90;;
10934;SDS011;5520;45.752;4.874;2023-04-08T02:12:33;4.47;;;1.83;;
10934;SDS011;5520;45.752;4.874;2023-04-08T02:15:02;6.40;;;2.10;;
10934;SDS011;5520;45.752;4.874;2023-04-08T02:17:31;4.60;;;2.47;;
10934;SDS011;5520;45.752;4.874;2023-04-08T02:20:04;2.50;;;2.03;;
10934;SDS011;5520;45.752;4.874;2023-04-08T02:22:37;3.30;;;1.90;;
10934;SDS011;5520;45.752;4.874;2023-04-08T02:25:07;2.60;;;2.20;;
10934;SDS011;5520;45.752;4.874;2023-04-08T02:27:35;2.27;;;2.07;;
10934;SDS011;5520;45.752;4.874;2023-04-08T02:30:04;3.00;;;2.20;;
10934;SDS011;5520;45.752;4.874;2023-04-08T02:32:33;2.87;;;2.30;;
10934;SDS011;5520;45.752;4.874;2023-04-08T02:35:02;3.93;;;2.07;;
10934;SDS011;5520;45.752;4.874;2023-04-08T02:37:32;3.60;;;2.23;;
10934;SDS011;5520;45.752;4.874;2023-04-08T02:40:00;2.70;;;2.13;;
10934;SDS011;5520;45.752;4.874;2023-04-08T02:42:28;4.83;;;2.07;;
10934;SDS011;5520;45.752;4.874;2023-04-08T02:44:56;2.47;;;2.00;;
10934;SDS011;5520;45.752;4.874;2023-04-08T02:47:24;1.83;;;1.63;;
10934;SDS011;5520;45.752;4.874;2023-04-08T02:49:52;2.80;;;1.90;;
10934;SDS011;5520;45.752;4.874;2023-04-08T02:52:20;4.97;;;2.00;;
10934;SDS011;5520;45.752;4.874;2023-04-08T02:54:50;2.20;;;1.77;;
10934;SDS011;5520;45.752;4.874;2023-04-08T02:57:17;3.53;;;1.87;;
10934;SDS011;5520;45.752;4.874;2023-04-08T02:59:46;4.87;;;2.40;;
10934;SDS011;5520;45.752;4.874;2023-04-08T03:02:13;3.17;;;1.80;;
10934;SDS011;5520;45.752;4.874;2023-04-08T03:04:42;3.77;;;2.07;;
10934;SDS011;5520;45.752;4.874;2023-04-08T03:07:09;3.77;;;1.67;;
10934;SDS011;5520;45.752;4.874;2023-04-08T03:09:37;2.77;;;2.23;;
10934;SDS011;5520;45.752;4.874;2023-04-08T03:12:07;2.40;;;2.03;;
10934;SDS011;5520;45.752;4.874;2023-04-08T03:14:35;2.37;;;2.17;;
10934;SDS011;5520;45.752;4.874;2023-04-08T03:17:03;4.97;;;2.23;;
10934;SDS011;5520;45.752;4.874;2023-04-08T03:19:30;9.00;;;2.30;;
10934;SDS011;5520;45.752;4.874;2023-04-08T03:21:58;1.60;;;1.50;;
10934;SDS011;5520;45.752;4.874;2023-04-08T03:24:26;3.90;;;1.87;;
10934;SDS011;5520;45.752;4.874;2023-04-08T03:26:54;2.50;;;1.77;;
10934;SDS011;5520;45.752;4.874;2023-04-08T03:29:24;3.77;;;1.73;;
10934;SDS011;5520;45.752;4.874;2023-04-08T03:31:52;3.30;;;1.90;;
10934;SDS011;5520;45.752;4.874;2023-04-08T03:34:20;4.13;;;2.20;;
10934;SDS011;5520;45.752;4.874;2023-04-08T03:36:48;3.43;;;2.13;;
10934;SDS011;5520;45.752;4.874;2023-04-08T03:39:16;2.73;;;2.03;;
10934;SDS011;5520;45.752;4.874;2023-04-08T03:41:44;2.00;;;1.80;;
10934;SDS011;5520;45.752;4.874;2023-04-08T03:44:12;2.63;;;2.20;;
10934;SDS011;5520;45.752;4.874;2023-04-08T03:46:41;3.70;;;2.30;;
10934;SDS011;5520;45.752;4.874;2023-04-08T03:49:09;2.30;;;1.73;;
10934;SDS011;5520;45.752;4.874;2023-04-08T03:51:38;2.97;;;2.37;;
10934;SDS011;5520;45.752;4.874;2023-04-08T03:54:06;1.87;;;1.77;;
10934;SDS011;5520;45.752;4.874;2023-04-08T03:56:34;2.73;;;1.90;;
10934;SDS011;5520;45.752;4.874;2023-04-08T03:59:02;2.27;;;1.83;;
10934;SDS011;5520;45.752;4.874;2023-04-08T04:01:30;3.53;;;1.90;;
10934;SDS011;5520;45.752;4.874;2023-04-08T04:03:59;2.93;;;2.00;;
10934;SDS011;5520;45.752;4.874;2023-04-08T04:06:27;2.37;;;2.03;;
10934;SDS011;5520;45.752;4.874;2023-04-08T04:08:55;2.20;;;2.00;;
10934;SDS011;5520;45.752;4.874;2023-04-08T04:11:23;1.80;;;1.70;;
10934;SDS011;5520;45.752;4.874;2023-04-08T04:13:51;2.23;;;2.00;;
10934;SDS011;5520;45.752;4.874;2023-04-08T04:16:19;2.57;;;1.90;;
10934;SDS011;5520;45.752;4.874;2023-04-08T04:18:48;1.80;;;1.70;;
10934;SDS011;5520;45.752;4.874;2023-04-08T04:21:17;1.77;;;1.67;;
10934;SDS011;5520;45.752;4.874;2023-04-08T04:23:45;2.10;;;1.90;;
10934;SDS011;5520;45.752;4.874;2023-04-08T04:26:13;2.40;;;1.77;;
10934;SDS011;5520;45.752;4.874;2023-04-08T04:28:41;2.70;;;2.00;;
10934;SDS011;5520;45.752;4.874;2023-04-08T04:31:16;2.03;;;1.93;;
10934;SDS011;5520;45.752;4.874;2023-04-08T04:33:44;2.33;;;1.93;;
10934;SDS011;5520;45.752;4.874;2023-04-08T04:36:12;3.67;;;1.80;;
10934;SDS011;5520;45.752;4.874;2023-04-08T04:38:42;2.90;;;1.90;;
10934;SDS011;5520;45.752;4.874;2023-04-08T04:41:10;1.87;;;1.73;;
10934;SDS011;5520;45.752;4.874;2023-04-08T04:43:38;2.73;;;1.60;;
10934;SDS011;5520;45.752;4.874;2023-04-08T04:46:06;2.20;;;2.00;;
10934;SDS011;5520;45.752;4.874;2023-04-08T04:48:34;2.93;;;2.37;;
10934;SDS011;5520;45.752;4.874;2023-04-08T04:51:03;3.93;;;1.83;;
10934;SDS011;5520;45.752;4.874;2023-04-08T04:53:33;2.70;;;1.90;;
10934;SDS011;5520;45.752;4.874;2023-04-08T04:56:02;2.80;;;2.03;;
10934;SDS011;5520;45.752;4.874;2023-04-08T04:58:30;1.97;;;1.73;;
10934;SDS011;5520;45.752;4.874;2023-04-08T05:00:58;3.33;;;1.87;;
10934;SDS011;5520;45.752;4.874;2023-04-08T05:03:26;3.80;;;1.90;;
10934;SDS011;5520;45.752;4.874;2023-04-08T05:05:54;2.20;;;2.00;;
10934;SDS011;5520;45.752;4.874;2023-04-08T05:08:22;2.73;;;2.17;;
10934;SDS011;5520;45.752;4.874;2023-04-08T05:10:53;2.20;;;2.10;;
10934;SDS011;5520;45.752;4.874;2023-04-08T05:13:23;1.70;;;1.60;;
10934;SDS011;5520;45.752;4.874;2023-04-08T05:15:51;2.40;;;1.77;;
10934;SDS011;5520;45.752;4.874;2023-04-08T05:18:19;3.17;;;1.80;;
10934;SDS011;5520;45.752;4.874;2023-04-08T05:20:47;2.30;;;2.00;;
10934;SDS011;5520;45.752;4.874;2023-04-08T05:23:15;2.47;;;2.27;;
10934;SDS011;5520;45.752;4.874;2023-04-08T05:25:43;2.60;;;2.40;;
10934;SDS011;5520;45.752;4.874;2023-04-08T05:28:11;3.20;;;2.77;;
10934;SDS011;5520;45.752;4.874;2023-04-08T05:30:40;3.07;;;2.30;;
10934;SDS011;5520;45.752;4.874;2023-04-08T05:33:08;2.20;;;2.00;;
10934;SDS011;5520;45.752;4.874;2023-04-08T05:35:37;2.60;;;2.40;;
10934;SDS011;5520;45.752;4.874;2023-04-08T05:38:05;5.63;;;2.67;;
10934;SDS011;5520;45.752;4.874;2023-04-08T05:40:33;2.70;;;2.30;;
10934;SDS011;5520;45.752;4.874;2023-04-08T05:43:01;3.10;;;2.63;;
10934;SDS011;5520;45.752;4.874;2023-04-08T05:45:29;3.23;;;2.53;;
10934;SDS011;5520;45.752;4.874;2023-04-08T05:47:58;6.10;;;2.90;;
10934;SDS011;5520;45.752;4.874;2023-04-08T05:50:26;3.27;;;2.50;;
10934;SDS011;5520;45.752;4.874;2023-04-08T05:52:54;4.10;;;2.63;;
10934;SDS011;5520;45.752;4.874;2023-04-08T05:55:23;5.27;;;2.97;;
10934;SDS011;5520;45.752;4.874;2023-04-08T05:57:51;3.40;;;2.43;;
10934;SDS011;5520;45.752;4.874;2023-04-08T06:00:19;2.87;;;2.57;;
10934;SDS011;5520;45.752;4.874;2023-04-08T06:02:47;3.37;;;2.90;;
10934;SDS011;5520;45.752;4.874;2023-04-08T06:05:17;3.03;;;2.50;;
10934;SDS011;5520;45.752;4.874;2023-04-08T06:07:45;5.30;;;3.07;;
10934;SDS011;5520;45.752;4.874;2023-04-08T06:10:13;4.47;;;3.17;;
10934;SDS011;5520;45.752;4.874;2023-04-08T06:12:41;3.53;;;2.90;;
10934;SDS011;5520;45.752;4.874;2023-04-08T06:15:09;3.23;;;2.97;;
10934;SDS011;5520;45.752;4.874;2023-04-08T06:17:37;3.40;;;3.03;;
10934;SDS011;5520;45.752;4.874;2023-04-08T06:20:05;3.80;;;2.83;;
10934;SDS011;5520;45.752;4.874;2023-04-08T06:22:36;4.13;;;3.47;;
10934;SDS011;5520;45.752;4.874;2023-04-08T06:25:04;5.40;;;3.77;;
10934;SDS011;5520;45.752;4.874;2023-04-08T06:27:32;4.50;;;3.77;;
10934;SDS011;5520;45.752;4.874;2023-04-08T06:30:00;4.90;;;3.73;;
10934;SDS011;5520;45.752;4.874;2023-04-08T06:32:28;4.47;;;3.30;;
10934;SDS011;5520;45.752;4.874;2023-04-08T06:34:56;4.93;;;3.23;;
10934;SDS011;5520;45.752;4.874;2023-04-08T06:37:24;3.07;;;2.77;;
10934;SDS011;5520;45.752;4.874;2023-04-08T06:39:54;5.37;;;3.30;;
10934;SDS011;5520;45.752;4.874;2023-04-08T06:42:22;4.27;;;3.20;;
10934;SDS011;5520;45.752;4.874;2023-04-08T06:44:50;3.93;;;2.97;;
10934;SDS011;5520;45.752;4.874;2023-04-08T06:47:18;2.83;;;2.60;;
10934;SDS011;5520;45.752;4.874;2023-04-08T06:49:46;3.53;;;3.23;;
10934;SDS011;5520;45.752;4.874;2023-04-08T06:52:14;6.10;;;3.23;;
10934;SDS011;5520;45.752;4.874;2023-04-08T06:54:42;4.00;;;3.60;;
10934;SDS011;5520;45.752;4.874;2023-04-08T06:57:11;4.10;;;3.40;;
10934;SDS011;5520;45.752;4.874;2023-04-08T06:59:39;6.40;;;3.30;;
10934;SDS011;5520;45.752;4.874;2023-04-08T07:02:07;5.77;;;3.60;;
10934;SDS011;5520;45.752;4.874;2023-04-08T07:04:35;5.67;;;3.43;;
10934;SDS011;5520;45.752;4.874;2023-04-08T07:07:03;5.83;;;3.50;;
10934;SDS011;5520;45.752;4.874;2023-04-08T07:09:31;4.90;;;3.33;;
10934;SDS011;5520;45.752;4.874;2023-04-08T07:11:59;4.83;;;3.83;;
10934;SDS011;5520;45.752;4.874;2023-04-08T07:14:28;4.20;;;3.40;;
10934;SDS011;5520;45.752;4.874;2023-04-08T07:16:56;3.70;;;3.40;;
10934;SDS011;5520;45.752;4.874;2023-04-08T07:19:24;6.23;;;3.97;;
10934;SDS011;5520;45.752;4.874;2023-04-08T07:21:52;4.20;;;3.40;;
10934;SDS011;5520;45.752;4.874;2023-04-08T07:24:20;4.90;;;4.20;;
10934;SDS011;5520;45.752;4.874;2023-04-08T07:26:48;4.37;;;3.73;;
10934;SDS011;5520;45.752;4.874;2023-04-08T07:29:16;3.50;;;3.20;;
10934;SDS011;5520;45.752;4.874;2023-04-08T07:31:46;5.83;;;3.30;;
10934;SDS011;5520;45.752;4.874;2023-04-08T07:34:14;4.80;;;3.80;;
10934;SDS011;5520;45.752;4.874;2023-04-08T07:36:42;5.83;;;4.43;;
10934;SDS011;5520;45.752;4.874;2023-04-08T07:39:10;4.47;;;3.60;;
10934;SDS011;5520;45.752;4.874;2023-04-08T07:41:38;5.30;;;3.17;;
10934;SDS011;5520;45.752;4.874;2023-04-08T07:44:06;5.13;;;4.03;;
10934;SDS011;5520;45.752;4.874;2023-04-08T07:46:35;8.03;;;5.87;;
10934;SDS011;5520;45.752;4.874;2023-04-08T07:49:04;6.47;;;4.23;;
10934;SDS011;5520;45.752;4.874;2023-04-08T07:51:32;4.80;;;3.97;;
10934;SDS011;5520;45.752;4.874;2023-04-08T07:54:00;5.70;;;4.30;;
10934;SDS011;5520;45.752;4.874;2023-04-08T07:56:28;4.43;;;3.77;;
10934;SDS011;5520;45.752;4.874;2023-04-08T07:58:56;4.17;;;3.63;;
10934;SDS011;5520;45.752;4.874;2023-04-08T08:01:24;5.17;;;3.60;;
10934;SDS011;5520;45.752;4.874;2023-04-08T08:03:56;4.60;;;3.20;;
10934;SDS011;5520;45.752;4.874;2023-04-08T08:06:26;6.70;;;3.50;;
10934;SDS011;5520;45.752;4.874;2023-04-08T08:08:54;4.93;;;3.77;;
10934;SDS011;5520;45.752;4.874;2023-04-08T08:11:22;4.13;;;3.33;;
10934;SDS011;5520;45.752;4.874;2023-04-08T08:13:50;4.07;;;3.60;;
10934;SDS011;5520;45.752;4.874;2023-04-08T08:16:18;5.13;;;3.20;;
10934;SDS011;5520;45.752;4.874;2023-04-08T08:18:46;4.20;;;3.27;;
10934;SDS011;5520;45.752;4.874;2023-04-08T08:21:14;6.57;;;3.47;;
10934;SDS011;5520;45.752;4.874;2023-04-08T08:23:44;4.50;;;3.37;;
10934;SDS011;5520;45.752;4.874;2023-04-08T08:26:12;3.97;;;3.23;;
10934;SDS011;5520;45.752;4.874;2023-04-08T08:28:40;4.43;;;3.30;;
10934;SDS011;5520;45.752;4.874;2023-04-08T08:31:08;4.67;;;3.40;;
10934;SDS011;5520;45.752;4.874;2023-04-08T08:33:36;8.13;;;3.50;;
10934;SDS011;5520;45.752;4.874;2023-04-08T08:36:04;5.03;;;3.37;;
10934;SDS011;5520;45.752;4.874;2023-04-08T08:38:32;3.50;;;3.17;;
10934;SDS011;5520;45.752;4.874;2023-04-08T08:41:02;4.83;;;3.10;;
10934;SDS011;5520;45.752;4.874;2023-04-08T08:43:30;3.00;;;2.70;;
10934;SDS011;5520;45.752;4.874;2023-04-08T08:46:00;3.60;;;3.30;;
10934;SDS011;5520;45.752;4.874;2023-04-08T08:48:28;4.10;;;2.90;;
10934;SDS011;5520;45.752;4.874;2023-04-08T08:50:56;4.37;;;2.80;;
10934;SDS011;5520;45.752;4.874;2023-04-08T08:53:27;3.23;;;2.93;;
10934;SDS011;5520;45.752;4.874;2023-04-08T08:55:58;2.73;;;2.53;;
10934;SDS011;5520;45.752;4.874;2023-04-08T08:58:45;4.63;;;2.93;;
10934;SDS011;5520;45.752;4.874;2023-04-08T09:01:30;3.23;;;2.63;;
10934;SDS011;5520;45.752;4.874;2023-04-08T09:04:09;2.83;;;2.63;;
10934;SDS011;5520;45.752;4.874;2023-04-08T09:06:37;3.10;;;2.53;;
10934;SDS011;5520;45.752;4.874;2023-04-08T09:09:05;3.77;;;2.70;;
10934;SDS011;5520;45.752;4.874;2023-04-08T09:11:36;3.00;;;2.67;;
10934;SDS011;5520;45.752;4.874;2023-04-08T09:14:07;2.50;;;2.30;;
10934;SDS011;5520;45.752;4.874;2023-04-08T09:16:43;4.07;;;2.83;;
10934;SDS011;5520;45.752;4.874;2023-04-08T09:19:12;3.00;;;2.70;;
10934;SDS011;5520;45.752;4.874;2023-04-08T09:21:40;5.20;;;2.60;;
10934;SDS011;5520;45.752;4.874;2023-04-08T09:24:08;2.93;;;2.60;;
10934;SDS011;5520;45.752;4.874;2023-04-08T09:26:36;2.80;;;2.60;;
10934;SDS011;5520;45.752;4.874;2023-04-08T09:29:05;2.90;;;2.60;;
10934;SDS011;5520;45.752;4.874;2023-04-08T09:31:53;2.43;;;2.23;;
10934;SDS011;5520;45.752;4.874;2023-04-08T09:34:22;2.87;;;2.57;;
10934;SDS011;5520;45.752;4.874;2023-04-08T09:36:50;5.30;;;2.60;;
10934;SDS011;5520;45.752;4.874;2023-04-08T09:39:18;2.73;;;2.53;;
10934;SDS011;5520;45.752;4.874;2023-04-08T09:41:47;3.13;;;2.30;;
10934;SDS011;5520;45.752;4.874;2023-04-08T09:44:15;3.07;;;2.77;;
10934;SDS011;5520;45.752;4.874;2023-04-08T09:46:46;2.60;;;2.40;;
10934;SDS011;5520;45.752;4.874;2023-04-08T09:49:21;5.33;;;2.57;;
10934;SDS011;5520;45.752;4.874;2023-04-08T09:51:53;2.57;;;2.37;;
10934;SDS011;5520;45.752;4.874;2023-04-08T09:54:23;2.40;;;2.30;;
10934;SDS011;5520;45.752;4.874;2023-04-08T09:56:55;3.03;;;2.13;;
10934;SDS011;5520;45.752;4.874;2023-04-08T09:59:26;3.00;;;2.20;;
10934;SDS011;5520;45.752;4.874;2023-04-08T10:01:54;3.70;;;2.53;;
10934;SDS011;5520;45.752;4.874;2023-04-08T10:04:24;2.43;;;2.23;;
10934;SDS011;5520;45.752;4.874;2023-04-08T10:06:56;3.13;;;2.40;;
10934;SDS011;5520;45.752;4.874;2023-04-08T10:09:24;2.23;;;2.03;;
10934;SDS011;5520;45.752;4.874;2023-04-08T10:11:53;3.50;;;2.53;;
10934;SDS011;5520;45.752;4.874;2023-04-08T10:14:21;3.13;;;2.10;;
10934;SDS011;5520;45.752;4.874;2023-04-08T10:19:37;3.20;;;2.10;;
10934;SDS011;5520;45.752;4.874;2023-04-08T10:27:39;3.40;;;2.17;;
10934;SDS011;5520;45.752;4.874;2023-04-08T10:30:19;3.43;;;2.37;;
10934;SDS011;5520;45.752;4.874;2023-04-08T10:33:08;3.00;;;2.40;;
10934;SDS011;5520;45.752;4.874;2023-04-08T10:35:40;2.57;;;2.17;;
10934;SDS011;5520;45.752;4.874;2023-04-08T10:38:08;9.07;;;2.77;;
10934;SDS011;5520;45.752;4.874;2023-04-08T10:40:38;3.53;;;2.20;;
10934;SDS011;5520;45.752;4.874;2023-04-08T10:43:08;3.10;;;2.40;;
10934;SDS011;5520;45.752;4.874;2023-04-08T10:45:36;3.47;;;2.27;;
10934;SDS011;5520;45.752;4.874;2023-04-08T10:48:11;2.33;;;2.20;;
10934;SDS011;5520;45.752;4.874;2023-04-08T10:50:41;2.63;;;2.37;;
10934;SDS011;5520;45.752;4.874;2023-04-08T10:53:09;2.10;;;2.00;;
10934;SDS011;5520;45.752;4.874;2023-04-08T10:55:37;2.40;;;1.97;;
10934;SDS011;5520;45.752;4.874;2023-04-08T10:58:05;1.93;;;1.70;;
10934;SDS011;5520;45.752;4.874;2023-04-08T11:00:34;1.83;;;1.73;;
10934;SDS011;5520;45.752;4.874;2023-04-08T11:03:02;2.27;;;2.00;;
10934;SDS011;5520;45.752;4.874;2023-04-08T11:05:31;2.23;;;1.90;;
10934;SDS011;5520;45.752;4.874;2023-04-08T11:08:01;3.43;;;1.87;;
10934;SDS011;5520;45.752;4.874;2023-04-08T11:10:29;2.07;;;1.73;;
10934;SDS011;5520;45.752;4.874;2023-04-08T11:12:57;2.20;;;2.03;;
10934;SDS011;5520;45.752;4.874;2023-04-08T11:15:25;2.23;;;2.10;;
10934;SDS011;5520;45.752;4.874;2023-04-08T11:17:54;2.10;;;2.00;;
10934;SDS011;5520;45.752;4.874;2023-04-08T11:20:23;1.90;;;1.80;;
10934;SDS011;5520;45.752;4.874;2023-04-08T11:22:51;1.93;;;1.73;;
10934;SDS011;5520;45.752;4.874;2023-04-08T11:25:20;2.70;;;2.10;;
10934;SDS011;5520;45.752;4.874;2023-04-08T11:27:48;2.13;;;1.57;;
10934;SDS011;5520;45.752;4.874;2023-04-08T11:30:17;2.10;;;1.80;;
10934;SDS011;5520;45.752;4.874;2023-04-08T11:32:45;1.60;;;1.50;;
10934;SDS011;5520;45.752;4.874;2023-04-08T11:35:15;2.33;;;1.80;;
10934;SDS011;5520;45.752;4.874;2023-04-08T11:37:43;2.63;;;1.93;;
10934;SDS011;5520;45.752;4.874;2023-04-08T11:40:18;1.90;;;1.80;;
10934;SDS011;5520;45.752;4.874;2023-04-08T11:42:47;1.60;;;1.50;;
10934;SDS011;5520;45.752;4.874;2023-04-08T11:45:16;1.87;;;1.40;;
10934;SDS011;5520;45.752;4.874;2023-04-08T11:47:45;1.80;;;1.70;;
10934;SDS011;5520;45.752;4.874;2023-04-08T11:50:21;1.83;;;1.50;;
10934;SDS011;5520;45.752;4.874;2023-04-08T11:52:49;1.80;;;1.57;;
10934;SDS011;5520;45.752;4.874;2023-04-08T11:55:21;1.87;;;1.77;;
10934;SDS011;5520;45.752;4.874;2023-04-08T11:57:50;2.13;;;1.77;;
10934;SDS011;5520;45.752;4.874;2023-04-08T12:00:19;1.60;;;1.50;;
10934;SDS011;5520;45.752;4.874;2023-04-08T12:02:47;2.20;;;1.57;;
10934;SDS011;5520;45.752;4.874;2023-04-08T12:05:15;1.97;;;1.70;;
10934;SDS011;5520;45.752;4.874;2023-04-08T12:07:43;4.40;;;1.93;;
10934;SDS011;5520;45.752;4.874;2023-04-08T12:10:11;1.93;;;1.60;;
10934;SDS011;5520;45.752;4.874;2023-04-08T12:12:40;2.97;;;1.90;;
10934;SDS011;5520;45.752;4.874;2023-04-08T12:15:09;3.50;;;1.80;;
10934;SDS011;5520;45.752;4.874;2023-04-08T12:17:37;2.27;;;1.47;;
10934;SDS011;5520;45.752;4.874;2023-04-08T12:20:06;1.67;;;1.57;;
10934;SDS011;5520;45.752;4.874;2023-04-08T12:22:34;2.93;;;1.90;;
10934;SDS011;5520;45.752;4.874;2023-04-08T12:25:03;3.23;;;1.57;;
10934;SDS011;5520;45.752;4.874;2023-04-08T12:27:32;1.73;;;1.50;;
10934;SDS011;5520;45.752;4.874;2023-04-08T12:30:00;2.63;;;1.70;;
10934;SDS011;5520;45.752;4.874;2023-04-08T12:32:29;2.20;;;1.70;;
10934;SDS011;5520;45.752;4.874;2023-04-08T12:34:58;2.30;;;2.10;;
10934;SDS011;5520;45.752;4.874;2023-04-08T12:37:25;2.57;;;1.80;;
10934;SDS011;5520;45.752;4.874;2023-04-08T12:39:54;1.70;;;1.30;;
10934;SDS011;5520;45.752;4.874;2023-04-08T12:42:22;1.40;;;1.30;;
10934;SDS011;5520;45.752;4.874;2023-04-08T12:44:49;1.90;;;1.60;;
10934;SDS011;5520;45.752;4.874;2023-04-08T12:47:18;3.70;;;1.67;;
10934;SDS011;5520;45.752;4.874;2023-04-08T12:49:47;2.80;;;1.60;;
10934;SDS011;5520;45.752;4.874;2023-04-08T12:52:15;2.80;;;1.80;;
10934;SDS011;5520;45.752;4.874;2023-04-08T12:54:44;3.30;;;1.90;;
10934;SDS011;5520;45.752;4.874;2023-04-08T12:57:12;1.87;;;1.70;;
10934;SDS011;5520;45.752;4.874;2023-04-08T12:59:40;1.40;;;1.30;;
10934;SDS011;5520;45.752;4.874;2023-04-08T13:02:08;1.80;;;1.70;;
10934;SDS011;5520;45.752;4.874;2023-04-08T13:04:36;2.83;;;1.60;;
10934;SDS011;5520;45.752;4.874;2023-04-08T13:07:05;2.30;;;1.40;;
10934;SDS011;5520;45.752;4.874;2023-04-08T13:09:33;1.93;;;1.47;;
10934;SDS011;5520;45.752;4.874;2023-04-08T13:12:01;1.27;;;1.20;;
10934;SDS011;5520;45.752;4.874;2023-04-08T13:14:29;1.60;;;1.33;;
10934;SDS011;5520;45.752;4.874;2023-04-08T13:16:57;1.43;;;1.33;;
10934;SDS011;5520;45.752;4.874;2023-04-08T13:19:25;1.17;;;1.10;;
10934;SDS011;5520;45.752;4.874;2023-04-08T13:21:53;1.40;;;1.30;;
10934;SDS011;5520;45.752;4.874;2023-04-08T13:24:23;1.17;;;1.17;;
10934;SDS011;5520;45.752;4.874;2023-04-08T13:26:51;1.50;;;1.40;;
10934;SDS011;5520;45.752;4.874;2023-04-08T13:29:18;1.50;;;1.40;;
10934;SDS011;5520;45.752;4.874;2023-04-08T13:31:46;1.73;;;1.00;;
10934;SDS011;5520;45.752;4.874;2023-04-08T13:34:14;1.50;;;1.40;;
10934;SDS011;5520;45.752;4.874;2023-04-08T13:36:42;1.40;;;1.30;;
10934;SDS011;5520;45.752;4.874;2023-04-08T13:39:10;1.10;;;1.10;;
10934;SDS011;5520;45.752;4.874;2023-04-08T13:41:40;1.07;;;1.00;;
10934;SDS011;5520;45.752;4.874;2023-04-08T13:44:08;1.27;;;1.13;;
10934;SDS011;5520;45.752;4.874;2023-04-08T13:46:36;1.80;;;1.00;;
10934;SDS011;5520;45.752;4.874;2023-04-08T13:49:05;1.20;;;1.20;;
10934;SDS011;5520;45.752;4.874;2023-04-08T13:51:33;1.57;;;1.10;;
10934;SDS011;5520;45.752;4.874;2023-04-08T13:54:00;1.03;;;1.00;;
10934;SDS011;5520;45.752;4.874;2023-04-08T13:56:28;1.40;;;1.30;;
10934;SDS011;5520;45.752;4.874;2023-04-08T13:58:58;1.00;;;0.90;;
10934;SDS011;5520;45.752;4.874;2023-04-08T14:01:26;2.87;;;1.40;;
10934;SDS011;5520;45.752;4.874;2023-04-08T14:03:54;1.13;;;1.03;;
10934;SDS011;5520;45.752;4.874;2023-04-08T14:06:22;1.80;;;1.30;;
10934;SDS011;5520;45.752;4.874;2023-04-08T14:08:50;2.30;;;1.00;;
10934;SDS011;5520;45.752;4.874;2023-04-08T14:11:19;2.00;;;1.00;;
10934;SDS011;5520;45.752;4.874;2023-04-08T14:13:47;0.90;;;0.90;;
10934;SDS011;5520;45.752;4.874;2023-04-08T14:16:16;1.23;;;1.23;;
10934;SDS011;5520;45.752;4.874;2023-04-08T14:18:45;1.70;;;1.30;;
10934;SDS011;5520;45.752;4.874;2023-04-08T14:21:13;1.10;;;0.90;;
10934;SDS011;5520;45.752;4.874;2023-04-08T14:23:43;0.90;;;0.90;;
10934;SDS011;5520;45.752;4.874;2023-04-08T14:26:12;0.90;;;0.90;;
10934;SDS011;5520;45.752;4.874;2023-04-08T14:28:40;0.93;;;0.93;;
10934;SDS011;5520;45.752;4.874;2023-04-08T14:31:08;0.80;;;0.80;;
10934;SDS011;5520;45.752;4.874;2023-04-08T14:33:37;1.30;;;1.20;;
10934;SDS011;5520;45.752;4.874;2023-04-08T14:36:06;1.23;;;1.20;;
10934;SDS011;5520;45.752;4.874;2023-04-08T14:38:34;1.17;;;0.93;;
10934;SDS011;5520;45.752;4.874;2023-04-08T14:41:02;1.37;;;0.90;;
10934;SDS011;5520;45.752;4.874;2023-04-08T14:43:30;1.03;;;1.03;;
10934;SDS011;5520;45.752;4.874;2023-04-08T14:45:58;1.13;;;1.07;;
10934;SDS011;5520;45.752;4.874;2023-04-08T14:48:26;2.67;;;1.40;;
10934;SDS011;5520;45.752;4.874;2023-04-08T14:50:57;0.90;;;0.90;;
10934;SDS011;5520;45.752;4.874;2023-04-08T14:53:25;1.40;;;1.30;;
10934;SDS011;5520;45.752;4.874;2023-04-08T14:55:53;3.23;;;1.30;;
10934;SDS011;5520;45.752;4.874;2023-04-08T14:58:21;2.13;;;1.27;;
10934;SDS011;5520;45.752;4.874;2023-04-08T15:00:50;2.73;;;1.40;;
10934;SDS011;5520;45.752;4.874;2023-04-08T15:03:17;1.23;;;1.20;;
10934;SDS011;5520;45.752;4.874;2023-04-08T15:05:46;1.33;;;1.23;;
10934;SDS011;5520;45.752;4.874;2023-04-08T15:08:15;0.87;;;0.80;;
10934;SDS011;5520;45.752;4.874;2023-04-08T15:10:43;1.13;;;1.07;;
10934;SDS011;5520;45.752;4.874;2023-04-08T15:13:11;1.10;;;1.10;;
10934;SDS011;5520;45.752;4.874;2023-04-08T15:15:39;1.13;;;1.10;;
10934;SDS011;5520;45.752;4.874;2023-04-08T15:18:07;1.77;;;1.00;;